Time;durP1;ratioP1;P1;durP2;ratioP2;P2;SDS_P1;SDS_P2;PMS_P1;PMS_P2;Temp;Humidity;BMP_temperature;BMP_pressure;BME280_temperature;BME280_humidity;BME280_pressure;Samples;Min_cycle;Max_cycle;Signal;HPM_P1;HPM_P2
2022/10/13 00:02:19;;;;;;;17.20;10.57;;;10.50;99.90;;;;;;5095287;28;20205;-59
2022/10/13 00:04:46;;;;;;;25.93;10.47;;;10.50;99.90;;;;;;5095793;28;20208;-59
2022/10/13 00:07:14;;;;;;;20.33;10.63;;;10.50;99.90;;;;;;5094782;28;20200;-59
2022/10/13 00:09:40;;;;;;;17.90;11.00;;;10.50;99.90;;;;;;5094849;28;20231;-59
2022/10/13 00:12:07;;;;;;;21.03;10.97;;;10.50;99.90;;;;;;5095163;28;20273;-60
2022/10/13 00:14:34;;;;;;;19.73;10.80;;;10.50;99.90;;;;;;5093973;28;20212;-59
2022/10/13 00:17:00;;;;;;;19.13;10.57;;;10.50;99.90;;;;;;5094613;28;20212;-59
2022/10/13 00:19:29;;;;;;;20.60;10.70;;;10.50;99.90;;;;;;5095228;28;20714;-59
2022/10/13 00:21:55;;;;;;;19.40;10.30;;;10.50;99.90;;;;;;5095523;28;20204;-59
2022/10/13 00:24:23;;;;;;;19.23;10.73;;;10.50;99.90;;;;;;5095015;28;20204;-59
2022/10/13 00:26:51;;;;;;;17.40;10.07;;;10.50;99.90;;;;;;5094497;28;20216;-59
2022/10/13 00:29:17;;;;;;;23.40;10.13;;;10.50;99.90;;;;;;5094629;28;20263;-59
2022/10/13 00:31:44;;;;;;;22.07;10.20;;;10.50;99.90;;;;;;5094727;28;20231;-59
2022/10/13 00:34:12;;;;;;;19.67;10.90;;;10.50;99.90;;;;;;5095097;28;20200;-59
2022/10/13 00:36:38;;;;;;;20.10;10.93;;;10.50;99.90;;;;;;5095210;28;20253;-59
2022/10/13 00:39:05;;;;;;;18.70;11.17;;;10.50;99.90;;;;;;5095200;28;20220;-59
2022/10/13 00:41:33;;;;;;;20.23;11.00;;;10.50;99.90;;;;;;5094691;28;20273;-59
2022/10/13 00:44:01;;;;;;;15.77;10.60;;;10.50;99.90;;;;;;5094722;28;20218;-59
2022/10/13 00:46:30;;;;;;;18.57;10.10;;;10.50;99.90;;;;;;5094066;28;20228;-59
2022/10/13 00:48:59;;;;;;;14.73;9.07;;;10.50;99.90;;;;;;5094195;28;20228;-56
2022/10/13 00:51:29;;;;;;;14.10;9.73;;;10.50;99.90;;;;;;5094158;28;20204;-59
2022/10/13 00:53:57;;;;;;;18.47;9.47;;;10.40;99.90;;;;;;5094668;28;20204;-58
2022/10/13 00:56:26;;;;;;;18.57;10.80;;;10.40;99.90;;;;;;5094000;28;20262;-57
2022/10/13 00:58:55;;;;;;;12.87;9.23;;;10.40;99.90;;;;;;5093941;28;20223;-59
2022/10/13 01:01:22;;;;;;;15.80;9.80;;;10.40;99.90;;;;;;5093985;28;20204;-59
2022/10/13 01:03:49;;;;;;;17.40;9.60;;;10.40;99.90;;;;;;5093921;28;20742;-59
2022/10/13 01:06:16;;;;;;;17.53;9.97;;;10.30;99.90;;;;;;5093560;28;20724;-59
2022/10/13 01:08:42;;;;;;;20.73;10.53;;;10.30;99.90;;;;;;5093815;28;20862;-58
2022/10/13 01:11:30;;;;;;;16.53;10.53;;;10.30;99.90;;;;;;5094069;28;20200;-58
2022/10/13 01:14:06;;;;;;;17.27;9.83;;;10.30;99.90;;;;;;5093941;28;20703;-59
2022/10/13 01:16:41;;;;;;;14.70;9.77;;;10.20;99.90;;;;;;5093610;28;20220;-59
2022/10/13 01:19:32;;;;;;;18.37;9.97;;;10.20;99.90;;;;;;5093760;28;20224;-59
2022/10/13 01:22:14;;;;;;;18.80;10.10;;;10.30;99.90;;;;;;5093463;28;20670;-59
2022/10/13 01:24:46;;;;;;;16.70;10.33;;;10.30;99.90;;;;;;5093504;28;20265;-59
2022/10/13 01:27:52;;;;;;;19.47;9.80;;;10.30;99.90;;;;;;5092964;28;20273;-59
2022/10/13 01:30:22;;;;;;;14.70;8.93;;;10.30;99.90;;;;;;5093733;28;20818;-59
2022/10/13 01:32:59;;;;;;;16.80;9.43;;;10.30;99.90;;;;;;5093357;28;20204;-58
2022/10/13 01:35:34;;;;;;;19.80;9.93;;;10.30;99.90;;;;;;5093834;28;20626;-59
2022/10/13 01:38:07;;;;;;;18.83;9.30;;;10.30;99.90;;;;;;5093179;28;20204;-59
2022/10/13 01:40:41;;;;;;;20.47;10.23;;;10.30;99.90;;;;;;5093390;28;20203;-59
2022/10/13 01:43:11;;;;;;;18.83;9.20;;;10.30;99.90;;;;;;5093356;28;20696;-59
2022/10/13 01:45:44;;;;;;;15.07;9.67;;;10.30;99.90;;;;;;5093304;28;20212;-59
2022/10/13 01:48:11;;;;;;;16.17;10.10;;;10.30;99.90;;;;;;5093101;28;20204;-59
2022/10/13 01:50:38;;;;;;;15.23;8.97;;;10.30;99.90;;;;;;5093104;28;20232;-59
2022/10/13 01:53:05;;;;;;;18.33;8.90;;;10.40;99.90;;;;;;5093235;28;20253;-59
2022/10/13 01:55:32;;;;;;;15.57;9.50;;;10.40;99.90;;;;;;5093079;28;20674;-59
2022/10/13 01:57:59;;;;;;;15.97;9.47;;;10.40;99.90;;;;;;5092817;28;20257;-60
2022/10/13 02:00:26;;;;;;;13.37;8.37;;;10.40;99.90;;;;;;5093167;28;20220;-59
2022/10/13 02:03:06;;;;;;;18.43;9.93;;;10.40;99.90;;;;;;5093021;28;20261;-59
2022/10/13 02:05:47;;;;;;;14.50;9.40;;;10.40;99.90;;;;;;5092883;28;20207;-59
2022/10/13 02:08:22;;;;;;;18.63;9.53;;;10.40;99.90;;;;;;5092682;28;20215;-59
2022/10/13 02:10:54;;;;;;;23.47;9.43;;;10.40;99.90;;;;;;5092768;28;20228;-59
2022/10/13 02:13:25;;;;;;;15.63;9.07;;;10.40;99.90;;;;;;5092748;28;20357;-59
2022/10/13 02:15:56;;;;;;;21.30;9.77;;;10.40;99.90;;;;;;5092770;28;20208;-59
2022/10/13 02:18:29;;;;;;;16.70;9.33;;;10.40;99.90;;;;;;5092906;28;20286;-59
2022/10/13 02:20:56;;;;;;;16.83;9.80;;;10.40;99.90;;;;;;5092558;28;20658;-59
2022/10/13 02:23:24;;;;;;;17.90;9.20;;;10.40;99.90;;;;;;5092650;28;20200;-59
2022/10/13 02:25:51;;;;;;;18.10;9.80;;;10.40;99.90;;;;;;5092293;28;20748;-59
2022/10/13 02:28:18;;;;;;;13.50;8.83;;;10.40;99.90;;;;;;5092229;28;20720;-59
2022/10/13 02:30:45;;;;;;;17.43;9.57;;;10.40;99.90;;;;;;5092308;28;20277;-59
2022/10/13 02:33:14;;;;;;;22.23;9.83;;;10.40;99.90;;;;;;5092346;28;20208;-59
2022/10/13 02:35:42;;;;;;;16.83;9.50;;;10.40;99.90;;;;;;5092498;28;20295;-59
2022/10/13 02:38:09;;;;;;;19.67;9.77;;;10.50;99.90;;;;;;5091151;28;20277;-59
2022/10/13 02:40:36;;;;;;;15.47;9.70;;;10.50;99.90;;;;;;5092517;28;20245;-59
2022/10/13 02:43:03;;;;;;;15.87;9.90;;;10.50;99.90;;;;;;5092285;28;20265;-59
2022/10/13 02:45:30;;;;;;;18.27;9.60;;;10.60;99.90;;;;;;5092286;28;20257;-60
2022/10/13 02:47:57;;;;;;;17.47;10.00;;;10.50;99.90;;;;;;5091782;28;20266;-60
2022/10/13 02:50:24;;;;;;;14.00;9.33;;;10.50;99.90;;;;;;5092374;28;20232;-59
2022/10/13 02:52:52;;;;;;;16.83;9.50;;;10.50;99.90;;;;;;5092033;28;20674;-59
2022/10/13 02:55:18;;;;;;;17.03;10.43;;;10.50;99.90;;;;;;5092450;28;20208;-60
2022/10/13 02:57:45;;;;;;;19.23;10.10;;;10.50;99.90;;;;;;5091932;28;20630;-59
2022/10/13 03:00:13;;;;;;;16.13;9.33;;;10.50;99.90;;;;;;5091964;28;20270;-59
2022/10/13 03:02:40;;;;;;;21.10;9.77;;;10.50;99.90;;;;;;5092030;28;20208;-59
2022/10/13 03:05:08;;;;;;;17.13;10.17;;;10.50;99.90;;;;;;5092252;28;20241;-59
2022/10/13 03:07:34;;;;;;;19.70;9.77;;;10.50;99.90;;;;;;5092032;28;20257;-60
2022/10/13 03:10:03;;;;;;;21.87;9.67;;;10.50;99.90;;;;;;5092129;28;20235;-60
2022/10/13 03:12:30;;;;;;;14.80;9.60;;;10.50;99.90;;;;;;5091924;28;20207;-59
2022/10/13 03:14:57;;;;;;;19.60;10.00;;;10.50;99.90;;;;;;5092421;28;20211;-59
2022/10/13 03:17:23;;;;;;;19.43;10.00;;;10.50;99.90;;;;;;5091944;28;20207;-59
2022/10/13 03:19:50;;;;;;;20.47;10.43;;;10.50;99.90;;;;;;5092247;28;20224;-59
2022/10/13 03:22:17;;;;;;;16.47;9.40;;;10.50;99.90;;;;;;5092014;28;20256;-59
2022/10/13 03:24:44;;;;;;;18.23;9.47;;;10.50;99.90;;;;;;5091839;28;20298;-59
2022/10/13 03:27:12;;;;;;;15.17;9.87;;;10.50;99.90;;;;;;5091736;28;20678;-59
2022/10/13 03:29:39;;;;;;;20.33;10.70;;;10.50;99.90;;;;;;5091746;28;20232;-59
2022/10/13 03:32:05;;;;;;;17.33;9.80;;;10.50;99.90;;;;;;5092048;28;20204;-59
2022/10/13 03:34:32;;;;;;;18.60;9.80;;;10.50;99.90;;;;;;5091992;28;20208;-59
2022/10/13 03:36:59;;;;;;;26.20;10.43;;;10.50;99.90;;;;;;5091726;28;20208;-59
2022/10/13 03:39:26;;;;;;;18.23;10.57;;;10.50;99.90;;;;;;5091726;28;20229;-59
2022/10/13 03:41:52;;;;;;;20.27;10.50;;;10.60;99.90;;;;;;5091852;28;20394;-59
2022/10/13 03:44:20;;;;;;;14.27;9.73;;;10.50;99.90;;;;;;5092054;28;20262;-59
2022/10/13 03:46:47;;;;;;;18.83;10.33;;;10.50;99.90;;;;;;5091547;28;20208;-60
2022/10/13 03:49:14;;;;;;;16.07;9.40;;;10.60;99.90;;;;;;5092566;28;20224;-59
2022/10/13 03:51:40;;;;;;;16.07;10.27;;;10.60;99.90;;;;;;5095400;28;20737;-59
2022/10/13 03:54:07;;;;;;;18.20;10.10;;;10.60;99.90;;;;;;5095483;28;20204;-59
2022/10/13 03:56:34;;;;;;;21.53;10.10;;;10.60;99.90;;;;;;5095503;28;20204;-59
2022/10/13 03:59:03;;;;;;;19.37;10.20;;;10.60;99.90;;;;;;5094857;28;20224;-59
2022/10/13 04:01:32;;;;;;;21.83;9.60;;;10.60;99.90;;;;;;5095243;28;20197;-59
2022/10/13 04:04:01;;;;;;;21.67;9.43;;;10.60;99.90;;;;;;5095147;28;20219;-59
2022/10/13 04:06:29;;;;;;;17.33;10.33;;;10.60;99.90;;;;;;5094993;28;20208;-59
2022/10/13 04:08:56;;;;;;;20.40;10.80;;;10.70;99.90;;;;;;5095502;28;20277;-60
2022/10/13 04:11:23;;;;;;;15.87;9.40;;;10.70;99.90;;;;;;5095118;28;20319;-59
2022/10/13 04:13:49;;;;;;;21.07;11.07;;;10.70;99.90;;;;;;5095331;28;20273;-59
2022/10/13 04:16:18;;;;;;;18.73;10.43;;;10.70;99.90;;;;;;5095100;28;20208;-60
2022/10/13 04:18:51;;;;;;;16.70;9.40;;;10.70;99.90;;;;;;5095065;28;20250;-60
2022/10/13 04:21:17;;;;;;;18.07;9.37;;;10.80;99.90;;;;;;5094896;28;20237;-60
2022/10/13 04:23:44;;;;;;;17.57;9.73;;;10.80;99.90;;;;;;5094565;28;20205;-59
2022/10/13 04:26:17;;;;;;;17.17;9.73;;;10.80;99.90;;;;;;5094424;28;20216;-59
2022/10/13 04:28:43;;;;;;;17.40;9.60;;;10.90;99.90;;;;;;5094746;28;20220;-59
2022/10/13 04:31:10;;;;;;;14.70;8.60;;;10.90;99.90;;;;;;5094506;28;20580;-60
2022/10/13 04:33:37;;;;;;;17.97;9.33;;;10.90;99.90;;;;;;5094358;28;20617;-59
2022/10/13 04:36:06;;;;;;;19.17;9.07;;;10.90;99.90;;;;;;5094231;28;20569;-60
2022/10/13 04:38:33;;;;;;;12.90;8.87;;;10.90;99.90;;;;;;5094197;28;20228;-59
2022/10/13 04:41:02;;;;;;;14.57;9.03;;;10.90;99.90;;;;;;5092520;28;20204;-59
2022/10/13 04:43:28;;;;;;;13.67;8.03;;;11.00;99.90;;;;;;5093899;28;20211;-59
2022/10/13 04:46:00;;;;;;;12.10;7.87;;;11.00;99.90;;;;;;5093671;28;20200;-59
2022/10/13 04:48:27;;;;;;;17.57;8.40;;;11.00;99.90;;;;;;5093874;28;20733;-60
2022/10/13 04:50:59;;;;;;;13.60;8.10;;;11.00;99.90;;;;;;5093104;28;20220;-59
2022/10/13 04:53:28;;;;;;;17.30;8.77;;;11.00;99.90;;;;;;5093497;28;20257;-59
2022/10/13 04:55:55;;;;;;;16.20;8.37;;;11.10;99.90;;;;;;5093075;28;20204;-60
2022/10/13 04:58:22;;;;;;;20.93;8.63;;;11.20;99.90;;;;;;5094128;28;20265;-59
2022/10/13 05:00:49;;;;;;;13.77;8.77;;;11.20;99.90;;;;;;5092603;28;20628;-56
2022/10/13 05:03:16;;;;;;;15.60;8.57;;;11.30;99.90;;;;;;5093304;28;20204;-57
2022/10/13 05:05:42;;;;;;;15.40;8.27;;;11.30;99.90;;;;;;5093561;28;20567;-55
2022/10/13 05:08:09;;;;;;;14.10;8.43;;;11.30;99.90;;;;;;5093634;28;20261;-58
2022/10/13 05:10:37;;;;;;;13.37;8.90;;;11.30;99.90;;;;;;5093290;28;20216;-59
2022/10/13 05:13:04;;;;;;;15.33;8.57;;;11.20;99.90;;;;;;5094362;28;20667;-59
2022/10/13 05:15:31;;;;;;;18.23;8.97;;;11.20;99.90;;;;;;5093445;28;20253;-58
2022/10/13 05:17:58;;;;;;;15.37;8.53;;;11.20;99.90;;;;;;5092952;28;20694;-58
2022/10/13 05:20:25;;;;;;;17.17;8.27;;;11.20;99.90;;;;;;5093288;28;20710;-61
2022/10/13 05:22:52;;;;;;;14.50;8.13;;;11.30;99.90;;;;;;5092487;28;20717;-57
2022/10/13 05:25:19;;;;;;;15.40;8.17;;;11.30;99.90;;;;;;5093303;28;20214;-57
2022/10/13 05:27:47;;;;;;;16.80;8.03;;;11.30;99.90;;;;;;5092616;28;20203;-64
2022/10/13 05:30:14;;;;;;;10.60;7.43;;;11.30;99.90;;;;;;5092836;28;20224;-57
2022/10/13 05:32:40;;;;;;;14.90;8.03;;;11.30;99.90;;;;;;5092772;28;20204;-66
2022/10/13 05:35:08;;;;;;;15.27;8.07;;;11.30;99.90;;;;;;5093106;28;20205;-63
2022/10/13 05:37:35;;;;;;;12.97;7.70;;;11.30;99.90;;;;;;5092569;28;20209;-64
2022/10/13 05:40:01;;;;;;;12.93;8.33;;;11.20;99.90;;;;;;5093076;28;20224;-63
2022/10/13 05:42:29;;;;;;;12.87;7.57;;;11.20;99.90;;;;;;5092439;28;20257;-62
2022/10/13 05:44:57;;;;;;;17.70;8.23;;;11.30;99.90;;;;;;5092583;28;20200;-62
2022/10/13 05:47:27;;;;;;;15.37;8.33;;;11.30;99.90;;;;;;5089986;28;20616;-61
2022/10/13 05:49:53;;;;;;;14.87;7.57;;;11.30;99.90;;;;;;5092155;28;20320;-62
2022/10/13 05:52:22;;;;;;;15.23;7.13;;;11.20;99.90;;;;;;5092257;28;20231;-62
2022/10/13 05:54:52;;;;;;;17.77;7.73;;;11.30;99.90;;;;;;5091636;28;20208;-61
2022/10/13 05:57:23;;;;;;;11.53;7.57;;;11.30;99.90;;;;;;5092235;28;20204;-61
2022/10/13 05:59:53;;;;;;;11.23;7.77;;;11.30;99.90;;;;;;5091689;28;20232;-60
2022/10/13 06:02:22;;;;;;;15.67;7.63;;;11.40;99.90;;;;;;5092159;28;20211;-63
2022/10/13 06:04:51;;;;;;;15.40;8.23;;;11.40;99.90;;;;;;5092230;28;20634;-63
2022/10/13 06:07:18;;;;;;;12.17;7.50;;;11.40;99.90;;;;;;5092152;28;20219;-64
2022/10/13 06:09:45;;;;;;;14.97;7.33;;;11.40;99.90;;;;;;5092283;28;20228;-62
2022/10/13 06:12:12;;;;;;;15.27;7.17;;;11.40;99.90;;;;;;5091485;28;20220;-65
2022/10/13 06:14:38;;;;;;;11.83;7.23;;;11.40;99.90;;;;;;5092257;28;20260;-64
2022/10/13 06:17:05;;;;;;;14.50;7.53;;;11.40;99.90;;;;;;5091831;28;20205;-60
2022/10/13 06:19:33;;;;;;;12.70;6.80;;;11.50;99.90;;;;;;5092259;28;20238;-60
2022/10/13 06:21:59;;;;;;;16.87;7.57;;;11.40;99.90;;;;;;5091950;28;20208;-58
2022/10/13 06:24:26;;;;;;;13.20;6.93;;;11.40;99.90;;;;;;5091933;28;20216;-61
2022/10/13 06:26:53;;;;;;;10.10;6.57;;;11.50;99.90;;;;;;5090966;28;20219;-61
2022/10/13 06:29:20;;;;;;;11.17;7.30;;;11.50;99.90;;;;;;5091952;28;20261;-63
2022/10/13 06:31:46;;;;;;;15.53;7.13;;;11.50;99.90;;;;;;5091538;28;20247;-60
2022/10/13 06:34:13;;;;;;;13.33;7.00;;;11.50;99.90;;;;;;5091905;28;20211;-61
2022/10/13 06:36:41;;;;;;;16.80;7.03;;;11.50;99.90;;;;;;5091766;28;20608;-61
2022/10/13 06:39:09;;;;;;;10.87;7.27;;;11.50;99.90;;;;;;5090927;28;20231;-61
2022/10/13 06:41:35;;;;;;;13.07;7.57;;;11.50;99.90;;;;;;5091588;28;20658;-61
2022/10/13 06:44:03;;;;;;;14.63;7.67;;;11.50;99.90;;;;;;5091279;28;20233;-61
2022/10/13 06:46:29;;;;;;;9.83;6.73;;;11.60;99.90;;;;;;5071021;28;20281;-63
2022/10/13 06:48:56;;;;;;;17.60;7.00;;;11.50;99.90;;;;;;5090131;28;20224;-64
2022/10/13 06:51:23;;;;;;;13.23;6.23;;;11.50;99.90;;;;;;5091265;28;20224;-63
2022/10/13 06:53:51;;;;;;;12.93;7.07;;;11.60;99.90;;;;;;5089724;28;20921;-62
2022/10/13 06:56:17;;;;;;;10.40;6.83;;;11.60;99.90;;;;;;5091249;28;20615;-63
2022/10/13 06:58:44;;;;;;;13.20;7.40;;;11.60;99.90;;;;;;5090490;28;20649;-61
2022/10/13 07:01:13;;;;;;;14.53;7.20;;;11.60;99.90;;;;;;5090972;28;20258;-61
2022/10/13 07:03:40;;;;;;;12.63;6.80;;;11.50;99.90;;;;;;5091139;28;20606;-60
2022/10/13 07:06:07;;;;;;;12.67;6.87;;;11.60;99.90;;;;;;5090491;28;20879;-61
2022/10/13 07:08:35;;;;;;;11.57;7.73;;;11.60;99.90;;;;;;5091324;28;20277;-61
2022/10/13 07:11:08;;;;;;;9.57;6.80;;;11.60;99.90;;;;;;5090763;28;20229;-61
2022/10/13 07:13:35;;;;;;;11.87;7.30;;;11.70;99.90;;;;;;5091198;28;20191;-61
2022/10/13 07:16:03;;;;;;;27.43;12.77;;;11.70;99.90;;;;;;5090596;28;20221;-60
2022/10/13 07:18:29;;;;;;;13.23;7.17;;;11.70;99.90;;;;;;5091049;28;20234;-61
2022/10/13 07:20:57;;;;;;;16.57;7.60;;;11.80;99.90;;;;;;5090754;28;20708;-62
2022/10/13 07:23:24;;;;;;;11.60;7.37;;;11.90;99.90;;;;;;5090663;28;20208;-61
2022/10/13 07:25:51;;;;;;;13.93;6.93;;;11.90;99.90;;;;;;5094412;28;20241;-61
2022/10/13 07:28:19;;;;;;;10.80;7.10;;;12.00;99.90;;;;;;5094806;28;20211;-61
2022/10/13 07:30:45;;;;;;;14.80;7.20;;;12.10;99.90;;;;;;5095092;28;20261;-61
2022/10/13 07:33:12;;;;;;;13.73;7.67;;;12.20;99.90;;;;;;5094513;28;20261;-62
2022/10/13 07:35:39;;;;;;;12.53;7.20;;;12.30;99.90;;;;;;5095064;28;20269;-62
2022/10/13 07:38:07;;;;;;;13.20;7.23;;;12.40;99.90;;;;;;5094085;28;20677;-59
2022/10/13 07:40:34;;;;;;;13.13;7.10;;;12.50;99.90;;;;;;5094957;28;20208;-59
2022/10/13 07:43:01;;;;;;;12.57;7.43;;;12.60;99.90;;;;;;5094822;28;20210;-61
2022/10/13 07:45:29;;;;;;;15.10;7.70;;;12.80;99.90;;;;;;5094121;28;20208;-62
2022/10/13 07:47:56;;;;;;;11.20;7.00;;;12.90;99.90;;;;;;5094644;28;20204;-61
2022/10/13 07:50:23;;;;;;;11.43;7.40;;;13.10;99.90;;;;;;5094346;28;20231;-62
2022/10/13 07:52:50;;;;;;;10.53;7.27;;;13.20;99.90;;;;;;5094476;28;20236;-62
2022/10/13 07:55:16;;;;;;;15.00;7.33;;;13.30;99.90;;;;;;5083847;28;20219;-61
2022/10/13 07:57:43;;;;;;;14.63;7.80;;;13.30;99.90;;;;;;5092616;28;20217;-62
2022/10/13 08:00:11;;;;;;;12.87;7.20;;;13.20;99.90;;;;;;5094309;28;20845;-62
2022/10/13 08:02:39;;;;;;;12.60;7.57;;;13.30;99.90;;;;;;5093698;28;20572;-63
2022/10/13 08:05:06;;;;;;;18.37;8.03;;;13.20;99.90;;;;;;5094403;28;20205;-63
2022/10/13 08:07:34;;;;;;;12.30;7.77;;;13.20;99.90;;;;;;5093680;28;20204;-62
2022/10/13 08:10:00;;;;;;;12.30;7.33;;;13.30;99.90;;;;;;5094248;28;20718;-59
2022/10/13 08:12:27;;;;;;;13.40;7.20;;;13.30;99.90;;;;;;5093522;28;20224;-59
2022/10/13 08:14:54;;;;;;;16.70;7.73;;;13.40;99.90;;;;;;5093956;28;20212;-63
2022/10/13 08:17:20;;;;;;;12.27;7.53;;;13.40;99.90;;;;;;5093096;28;20212;-59
2022/10/13 08:19:50;;;;;;;12.87;7.33;;;13.40;99.90;;;;;;5092247;28;20231;-62
2022/10/13 08:22:17;;;;;;;11.83;7.50;;;13.40;99.90;;;;;;5092394;28;20199;-58
2022/10/13 08:24:44;;;;;;;12.80;7.00;;;13.50;99.90;;;;;;5093723;28;20227;-65
2022/10/13 08:27:11;;;;;;;12.87;7.23;;;13.50;99.90;;;;;;5093294;28;20245;-64
2022/10/13 08:29:38;;;;;;;14.87;6.87;;;13.60;99.90;;;;;;5093532;28;20220;-58
2022/10/13 08:32:04;;;;;;;14.70;8.23;;;13.70;99.90;;;;;;5094005;28;20286;-61
2022/10/13 08:34:32;;;;;;;17.10;7.60;;;13.80;99.90;;;;;;5093679;28;20200;-59
2022/10/13 08:37:00;;;;;;;10.77;7.10;;;13.90;99.90;;;;;;5092121;28;20240;-63
2022/10/13 08:39:27;;;;;;;10.53;6.80;;;14.00;99.90;;;;;;5093390;28;20232;-62
2022/10/13 08:41:56;;;;;;;14.53;7.73;;;14.10;99.90;;;;;;5093498;28;20209;-61
2022/10/13 08:44:29;;;;;;;12.10;6.87;;;14.20;99.90;;;;;;5093928;28;20294;-62
2022/10/13 08:47:05;;;;;;;13.37;7.43;;;14.30;99.90;;;;;;5092942;28;20204;-62
2022/10/13 08:49:32;;;;;;;15.63;7.40;;;14.30;99.90;;;;;;5093997;28;20254;-62
2022/10/13 08:52:03;;;;;;;12.13;6.77;;;14.50;99.90;;;;;;5093250;28;20238;-60
2022/10/13 08:54:30;;;;;;;15.57;7.57;;;14.50;99.90;;;;;;5093615;28;20265;-59
2022/10/13 08:56:56;;;;;;;10.13;6.43;;;14.60;99.90;;;;;;5092682;28;20204;-59
2022/10/13 08:59:23;;;;;;;10.80;6.90;;;14.60;99.90;;;;;;5093575;28;20285;-62
2022/10/13 09:01:53;;;;;;;12.47;6.63;;;14.60;99.90;;;;;;5093095;28;20196;-62
2022/10/13 09:04:31;;;;;;;13.10;6.93;;;14.60;99.90;;;;;;5091545;28;20654;-59
2022/10/13 09:07:05;;;;;;;10.63;6.57;;;14.60;99.90;;;;;;5078834;28;20727;-62
2022/10/13 09:09:33;;;;;;;10.70;6.83;;;14.50;99.90;;;;;;5072703;28;20225;-59
2022/10/13 09:11:59;;;;;;;12.00;7.37;;;14.60;99.90;;;;;;5072816;28;20229;-57
2022/10/13 09:14:28;;;;;;;12.63;7.00;;;14.60;99.90;;;;;;5072540;28;20209;-58
2022/10/13 09:16:57;;;;;;;14.27;6.77;;;14.60;99.90;;;;;;5072376;28;20208;-61
2022/10/13 09:19:27;;;;;;;13.00;6.93;;;14.70;99.90;;;;;;5072267;28;20229;-61
2022/10/13 09:21:56;;;;;;;12.90;7.30;;;14.80;99.90;;;;;;5077366;28;20299;-62
2022/10/13 09:24:26;;;;;;;11.17;6.80;;;14.90;99.90;;;;;;5092708;28;20204;-61
2022/10/13 09:27:04;;;;;;;14.27;6.67;;;14.90;99.90;;;;;;5091552;28;20211;-60
2022/10/13 09:29:31;;;;;;;10.43;6.77;;;15.10;99.90;;;;;;5092804;28;20232;-61
2022/10/13 09:32:15;;;;;;;11.83;6.30;;;15.30;99.90;;;;;;5091743;28;20220;-59
2022/10/13 09:34:42;;;;;;;11.60;6.57;;;15.50;99.90;;;;;;5093055;28;20616;-61
2022/10/13 09:37:19;;;;;;;16.77;6.43;;;15.50;96.30;;;;;;5091357;28;20196;-61
2022/10/13 09:40:01;;;;;;;15.17;6.20;;;15.60;99.90;;;;;;5091312;28;20289;-60
2022/10/13 09:42:30;;;;;;;14.60;6.03;;;15.70;94.40;;;;;;5076671;28;20311;-61
2022/10/13 09:44:59;;;;;;;14.93;6.60;;;15.60;94.00;;;;;;5092804;28;20235;-62
2022/10/13 09:47:28;;;;;;;12.03;5.60;;;15.40;92.60;;;;;;5090789;28;20212;-62
2022/10/13 09:50:01;;;;;;;16.80;6.50;;;15.50;93.70;;;;;;5091864;28;20216;-61
2022/10/13 09:52:28;;;;;;;11.33;5.90;;;15.40;95.00;;;;;;5092391;28;20307;-63
2022/10/13 09:54:59;;;;;;;11.27;6.00;;;15.50;96.10;;;;;;5091687;28;20227;-63
2022/10/13 09:57:35;;;;;;;12.83;6.53;;;15.40;99.10;;;;;;5092137;28;20204;-62
2022/10/13 10:00:16;;;;;;;14.47;6.73;;;15.50;98.90;;;;;;5092157;28;20256;-61
2022/10/13 10:02:48;;;;;;;11.30;6.00;;;15.50;99.50;;;;;;5092074;28;20205;-59
2022/10/13 10:05:22;;;;;;;9.50;5.87;;;15.50;98.00;;;;;;5091591;28;20211;-61
2022/10/13 10:07:49;;;;;;;10.57;6.00;;;15.60;94.70;;;;;;5091865;28;20298;-59
2022/10/13 10:10:32;;;;;;;11.17;5.57;;;15.60;91.60;;;;;;5091850;28;20344;-60
2022/10/13 10:12:59;;;;;;;11.37;6.73;;;15.50;94.00;;;;;;5092443;28;20658;-62
2022/10/13 10:15:36;;;;;;;10.43;6.33;;;15.60;93.10;;;;;;5091990;28;20584;-59
2022/10/13 10:18:08;;;;;;;9.23;5.80;;;15.60;90.10;;;;;;5091642;28;20204;-61
2022/10/13 10:20:47;;;;;;;13.97;6.13;;;15.70;96.40;;;;;;5092277;28;20249;-60
2022/10/13 10:23:21;;;;;;;12.13;6.37;;;15.90;89.00;;;;;;5091513;28;20209;-60
2022/10/13 10:25:53;;;;;;;12.30;5.73;;;15.90;87.30;;;;;;5091825;28;20276;-60
2022/10/13 10:28:52;;;;;;;11.50;5.67;;;15.90;88.70;;;;;;5091199;28;20253;-60
2022/10/13 10:31:29;;;;;;;16.13;6.53;;;16.00;79.70;;;;;;5091960;28;20273;-61
2022/10/13 10:34:14;;;;;;;9.47;5.83;;;15.90;93.10;;;;;;5091339;28;20211;-59
2022/10/13 10:36:47;;;;;;;12.43;6.07;;;16.00;80.50;;;;;;5091213;28;20216;-59
2022/10/13 10:39:28;;;;;;;10.93;5.73;;;16.10;80.40;;;;;;5091007;28;20232;-59
2022/10/13 10:42:05;;;;;;;12.30;5.77;;;16.00;60.20;;;;;;5076780;28;20205;-59
2022/10/13 10:44:35;;;;;;;9.87;5.40;;;16.20;82.80;;;;;;5090427;28;20211;-63
2022/10/13 10:47:06;;;;;;;15.03;5.90;;;16.40;89.00;;;;;;5091221;28;20608;-63
2022/10/13 10:49:35;;;;;;;9.87;5.33;;;16.40;71.10;;;;;;5091454;28;20232;-62
2022/10/13 10:52:06;;;;;;;8.33;5.70;;;16.60;65.70;;;;;;5076815;28;20221;-62
2022/10/13 10:54:43;;;;;;;15.93;6.60;;;16.70;36.00;;;;;;5070973;28;20201;-62
2022/10/13 10:57:18;;;;;;;10.07;5.60;;;16.60;28.40;;;;;;5070994;28;20212;-60
2022/10/13 10:59:56;;;;;;;11.97;6.13;;;16.50;17.60;;;;;;5070752;28;20723;-59
2022/10/13 11:02:43;;;;;;;9.50;5.80;;;16.60;7.60;;;;;;5080244;28;20208;-63
2022/10/13 11:05:10;;;;;;;10.13;6.53;;;16.60;1.00;;;;;;5091392;28;20208;-60
2022/10/13 11:08:25;;;;;;;12.50;5.63;;;16.60;1.00;;;;;;5090723;28;20203;-58
2022/10/13 11:11:33;;;;;;;13.87;5.37;;;16.90;1.00;;;;;;5028650;28;20798;-63
2022/10/13 11:14:03;;;;;;;9.23;5.40;;;17.00;1.00;;;;;;5091307;28;20251;-61
2022/10/13 11:16:33;;;;;;;10.80;5.03;;;17.00;1.00;;;;;;5090951;28;20212;-61
2022/10/13 11:19:05;;;;;;;9.30;5.10;;;17.10;1.00;;;;;;5090630;28;20228;-60
2022/10/13 11:22:23;;;;;;;7.73;5.40;;;17.20;1.00;;;;;;5091297;28;20207;-63
2022/10/13 11:24:53;;;;;;;10.30;5.40;;;17.20;1.00;;;;;;5091249;28;20295;-62
2022/10/13 11:27:26;;;;;;;14.03;5.23;;;17.30;1.00;;;;;;5090754;28;20224;-61
2022/10/13 11:29:58;;;;;;;11.60;4.80;;;17.10;99.90;;;;;;5090598;28;20726;-63
2022/10/13 11:32:55;;;;;;;13.17;4.90;;;17.20;99.90;;;;;;5091104;28;20231;-62
2022/10/13 11:35:24;;;;;;;6.90;4.47;;;17.30;1.00;;;;;;5091004;28;20208;-61
2022/10/13 11:38:19;;;;;;;8.80;4.87;;;17.00;1.00;;;;;;5090612;28;20291;-62
2022/10/13 11:41:05;;;;;;;8.13;5.07;;;16.90;99.90;;;;;;5090907;28;20261;-62
2022/10/13 11:43:48;;;;;;;11.80;4.97;;;16.70;1.00;;;;;;5090729;28;20253;-62
2022/10/13 11:46:27;;;;;;;11.33;4.73;;;16.80;99.90;;;;;;5090485;28;20227;-62
2022/10/13 11:49:15;;;;;;;12.47;5.23;;;16.90;99.90;;;;;;5090680;28;20278;-63
2022/10/13 11:52:06;;;;;;;13.33;5.93;;;16.60;99.90;;;;;;5090552;28;20204;-63
2022/10/13 11:54:37;;;;;;;10.10;5.20;;;16.70;1.00;;;;;;5091497;28;20208;-62
2022/10/13 11:57:18;;;;;;;9.93;5.40;;;16.80;97.90;;;;;;5090194;28;20603;-64
2022/10/13 11:59:48;;;;;;;10.70;5.10;;;16.70;1.00;;;;;;5091089;28;20270;-64
2022/10/13 12:02:16;;;;;;;18.40;5.47;;;16.60;1.00;;;;;;5090259;28;20220;-62
2022/10/13 12:04:44;;;;;;;8.57;5.10;;;16.50;1.00;;;;;;5077838;28;20288;-63
2022/10/13 12:07:14;;;;;;;11.40;5.10;;;16.50;1.00;;;;;;5089069;28;20257;-62
2022/10/13 12:09:55;;;;;;;8.07;4.43;;;16.40;1.00;;;;;;5090182;28;20224;-60
2022/10/13 12:12:23;;;;;;;9.40;5.20;;;16.40;1.00;;;;;;5093783;28;20597;-65
2022/10/13 12:14:52;;;;;;;8.07;4.70;;;16.30;1.00;;;;;;5094592;28;20254;-63
2022/10/13 12:17:23;;;;;;;9.43;4.63;;;16.30;1.00;;;;;;5094029;28;20200;-65
2022/10/13 12:19:52;;;;;;;13.13;5.00;;;16.20;1.00;;;;;;5093623;28;20231;-61
2022/10/13 12:22:19;;;;;;;8.03;4.97;;;16.30;1.00;;;;;;5093852;28;20241;-61
2022/10/13 12:24:58;;;;;;;8.87;5.10;;;16.20;1.00;;;;;;5093743;28;20208;-62
2022/10/13 12:27:26;;;;;;;11.93;5.13;;;16.20;1.00;;;;;;5094127;28;20258;-62
2022/10/13 12:29:54;;;;;;;10.53;5.20;;;16.20;1.00;;;;;;5093682;28;20232;-62
2022/10/13 12:32:23;;;;;;;7.93;5.27;;;16.10;1.00;;;;;;5094410;28;20204;-61
2022/10/13 12:34:50;;;;;;;11.47;5.73;;;16.10;1.00;;;;;;5093556;28;20208;-61
2022/10/13 12:37:26;;;;;;;9.63;5.17;;;16.20;1.00;;;;;;5093833;28;20209;-62
2022/10/13 12:39:53;;;;;;;11.30;5.53;;;16.10;1.00;;;;;;5093026;28;20223;-63
2022/10/13 12:42:28;;;;;;;11.40;5.33;;;16.10;48.40;;;;;;5093462;28;20230;-60
2022/10/13 12:44:57;;;;;;;16.80;5.90;;;16.10;27.30;;;;;;5093961;28;20204;-62
2022/10/13 12:47:46;;;;;;;12.33;5.67;;;16.10;99.90;;;;;;5092670;28;20287;-62
2022/10/13 12:50:33;;;;;;;14.40;6.90;;;16.00;99.90;;;;;;5093063;28;20966;-61
2022/10/13 12:53:10;;;;;;;14.67;6.90;;;15.70;99.90;;;;;;5093184;28;20219;-60
2022/10/13 12:55:47;;;;;;;12.50;6.43;;;15.60;1.00;;;;;;5093604;28;20207;-63